Time;durP1;ratioP1;P1;durP2;ratioP2;P2;SDS_P1;SDS_P2;PMS_P1;PMS_P2;Temp;Humidity;BMP_temperature;BMP_pressure;BME280_temperature;BME280_humidity;BME280_pressure;Samples;Min_cycle;Max_cycle;Signal;HPM_P1;HPM_P2
2021/10/19 00:00:35;;;;;;;1.55;0.50;;;;;;;5.02;84.66;101857.69;4776379;29;20098;-77
2021/10/19 00:03:01;;;;;;;2.17;0.50;;;;;;;4.98;85.46;101850.09;4808736;29;20023;-77
2021/10/19 00:05:26;;;;;;;1.30;0.60;;;;;;;4.98;85.32;101837.59;4776792;29;20042;-77
2021/10/19 00:07:52;;;;;;;3.20;0.45;;;;;;;5.09;85.39;101856.16;4791749;29;20126;-77
2021/10/19 00:10:18;;;;;;;2.92;0.60;;;;;;;5.10;85.23;101847.19;4777121;29;20035;-77
2021/10/19 00:12:44;;;;;;;2.55;0.60;;;;;;;5.10;86.12;101849.84;4791540;29;20050;-77
2021/10/19 00:15:11;;;;;;;0.95;0.57;;;;;;;5.05;86.20;101841.41;4776604;29;20030;-77
2021/10/19 00:17:38;;;;;;;1.27;0.50;;;;;;;5.03;86.29;101827.34;4791695;29;20023;-78
2021/10/19 00:20:05;;;;;;;1.25;0.50;;;;;;;5.06;86.95;101828.91;4791005;29;20042;-77
2021/10/19 00:22:31;;;;;;;1.20;0.50;;;;;;;4.88;86.53;101792.25;4807835;29;20358;-77
2021/10/19 00:24:56;;;;;;;1.23;0.40;;;;;;;4.98;86.63;101808.25;4791009;29;20034;-77
2021/10/19 00:27:22;;;;;;;3.38;0.50;;;;;;;4.94;86.89;101796.19;4800633;29;20037;-77
2021/10/19 00:29:47;;;;;;;1.30;0.40;;;;;;;4.77;87.63;101770.19;4825613;29;20041;-77
2021/10/19 00:32:12;;;;;;;1.00;0.40;;;;;;;4.81;88.12;101774.28;4794226;29;20532;-78
2021/10/19 00:34:38;;;;;;;0.68;0.28;;;;;;;4.74;88.25;101775.81;4810525;29;20113;-77
2021/10/19 00:37:03;;;;;;;1.83;0.50;;;;;;;4.63;88.81;101750.09;4781996;29;20485;-77
2021/10/19 00:39:29;;;;;;;0.95;0.52;;;;;;;4.79;88.99;101784.22;4776684;29;20100;-77
2021/10/19 00:41:54;;;;;;;1.67;0.73;;;;;;;4.75;89.08;101780.16;4790917;29;20035;-77
2021/10/19 00:44:20;;;;;;;1.48;0.45;;;;;;;4.76;89.70;101773.84;4790877;29;20051;-77
2021/10/19 00:46:45;;;;;;;1.25;0.60;;;;;;;4.65;89.40;101753.47;4761696;29;20055;-77
2021/10/19 00:49:11;;;;;;;1.15;0.70;;;;;;;4.69;89.81;101762.88;4802241;29;20071;-77
2021/10/19 00:51:37;;;;;;;2.20;0.55;;;;;;;4.78;90.14;101769.22;4795724;29;20031;-78
2021/10/19 00:54:03;;;;;;;1.00;0.40;;;;;;;4.71;90.36;101748.44;4804527;29;20040;-78
2021/10/19 00:56:28;;;;;;;1.08;0.40;;;;;;;4.71;91.23;101766.25;4806906;29;20109;-77
2021/10/19 00:58:54;;;;;;;1.58;0.50;;;;;;;4.74;90.10;101759.81;4790403;29;20493;-77
2021/10/19 01:01:20;;;;;;;2.03;0.50;;;;;;;4.68;90.93;101750.53;4806408;29;20117;-77
2021/10/19 01:03:45;;;;;;;1.35;0.50;;;;;;;4.71;91.09;101744.94;4791461;29;20114;-77
2021/10/19 01:06:11;;;;;;;2.35;0.55;;;;;;;4.70;91.93;101741.44;4776316;29;20034;-77
2021/10/19 01:08:37;;;;;;;2.75;0.60;;;;;;;4.69;91.82;101731.72;4791972;29;20045;-78
2021/10/19 01:11:05;;;;;;;1.30;0.40;;;;;;;4.59;91.76;101706.88;4806440;29;20099;-78
2021/10/19 01:13:32;;;;;;;2.08;0.40;;;;;;;4.58;92.75;101694.53;4795317;29;20035;-77
2021/10/19 01:16:11;;;;;;;2.63;0.55;;;;;;;4.58;92.88;101699.88;4808329;29;20038;-77
2021/10/19 01:18:39;;;;;;;1.25;0.50;;;;;;;4.59;93.60;101709.53;4802458;29;20470;-77
2021/10/19 01:21:06;;;;;;;1.33;0.65;;;;;;;4.61;93.96;101709.41;4790890;29;20042;-77
2021/10/19 01:23:33;;;;;;;2.67;0.50;;;;;;;4.58;93.94;101705.19;4805781;29;20416;-78
2021/10/19 01:26:00;;;;;;;1.20;0.50;;;;;;;4.57;94.29;101700.84;4794195;29;20138;-77
2021/10/19 01:28:26;;;;;;;2.72;0.50;;;;;;;4.56;94.73;101684.97;4803697;29;20469;-77
2021/10/19 01:30:54;;;;;;;1.10;0.52;;;;;;;4.54;95.18;101689.63;4787070;29;20039;-77
2021/10/19 01:33:19;;;;;;;0.98;0.55;;;;;;;4.27;95.84;101643.13;4805063;29;20027;-78
2021/10/19 01:35:46;;;;;;;1.27;0.60;;;;;;;4.54;96.03;101682.47;4797634;29;20026;-77
2021/10/19 01:38:15;;;;;;;1.15;0.50;;;;;;;4.15;96.22;101630.94;4791199;29;20037;-77
2021/10/19 01:40:41;;;;;;;1.70;0.60;;;;;;;4.51;96.87;101681.91;4805752;29;20019;-77
2021/10/19 01:43:11;;;;;;;1.10;0.30;;;;;;;4.53;96.84;101672.78;4805241;29;20117;-77
2021/10/19 01:45:37;;;;;;;1.80;0.50;;;;;;;4.52;97.31;101662.25;4790909;29;20031;-77
2021/10/19 01:48:03;;;;;;;1.60;0.60;;;;;;;4.54;97.69;101654.97;4806187;29;20035;-78
2021/10/19 01:50:28;;;;;;;3.28;0.90;;;;;;;4.53;98.22;101653.28;4790469;29;20492;-77
2021/10/19 01:52:54;;;;;;;3.35;0.60;;;;;;;4.42;98.99;101622.28;4805800;29;20087;-78
2021/10/19 01:55:19;;;;;;;1.13;0.60;;;;;;;4.51;98.87;101629.44;4789504;29;20031;-77
2021/10/19 01:57:44;;;;;;;2.35;0.73;;;;;;;4.39;99.29;101622.56;4790249;29;20035;-78
2021/10/19 02:00:10;;;;;;;1.92;0.70;;;;;;;4.50;99.66;101638.41;4790446;29;20378;-77
2021/10/19 02:02:37;;;;;;;1.23;0.77;;;;;;;4.51;100.00;101634.78;4791570;29;20041;-78
2021/10/19 02:05:03;;;;;;;1.08;0.60;;;;;;;4.54;100.00;101639.81;4795926;29;20038;-78
2021/10/19 02:07:28;;;;;;;1.45;0.60;;;;;;;4.48;100.00;101629.72;4803206;29;20034;-78
2021/10/19 02:09:54;;;;;;;2.05;0.60;;;;;;;4.50;100.00;101633.06;4776733;29;20091;-78
2021/10/19 02:12:19;;;;;;;3.15;0.68;;;;;;;4.54;100.00;101637.16;4789817;29;20061;-77
2021/10/19 02:14:45;;;;;;;1.48;0.90;;;;;;;4.57;100.00;101636.88;4805087;29;20173;-78
2021/10/19 02:17:10;;;;;;;2.80;0.50;;;;;;;4.57;100.00;101634.22;4775349;29;20096;-78
2021/10/19 02:19:35;;;;;;;2.70;0.80;;;;;;;4.59;100.00;101623.41;4805656;29;20027;-78
2021/10/19 02:22:01;;;;;;;1.20;0.57;;;;;;;4.58;100.00;101630.56;4790124;29;20030;-78
2021/10/19 02:24:27;;;;;;;1.98;0.70;;;;;;;4.60;100.00;101630.41;4805981;29;20035;-78
2021/10/19 02:26:52;;;;;;;1.35;0.93;;;;;;;4.62;100.00;101623.97;4803728;29;20049;-78
2021/10/19 02:29:20;;;;;;;2.05;0.80;;;;;;;4.62;100.00;101613.31;4808837;29;20485;-77
2021/10/19 02:31:46;;;;;;;1.77;0.60;;;;;;;4.64;100.00;101615.84;4810891;29;20362;-78
2021/10/19 02:34:12;;;;;;;2.17;0.60;;;;;;;4.64;100.00;101618.50;4776469;29;20035;-78
2021/10/19 02:36:38;;;;;;;1.10;0.70;;;;;;;4.66;100.00;101621.84;4775753;29;20416;-78
2021/10/19 02:39:06;;;;;;;0.65;0.60;;;;;;;4.68;100.00;101625.25;4790135;29;20039;-77
2021/10/19 02:41:35;;;;;;;4.55;0.80;;;;;;;4.71;100.00;101615.13;4801748;29;20042;-77
2021/10/19 02:44:01;;;;;;;3.15;0.77;;;;;;;4.70;100.00;101613.47;4808829;29;20481;-77
2021/10/19 02:46:26;;;;;;;2.22;0.77;;;;;;;4.72;100.00;101605.31;4813385;29;20035;-77
2021/10/19 02:48:52;;;;;;;1.77;0.75;;;;;;;4.74;100.00;101602.50;4782938;29;20121;-78
2021/10/19 02:51:19;;;;;;;3.20;1.02;;;;;;;4.65;100.00;101578.38;4777866;29;20030;-78
2021/10/19 02:53:45;;;;;;;2.33;0.93;;;;;;;4.78;100.00;101598.56;4815325;29;20034;-77
2021/10/19 02:56:10;;;;;;;1.83;0.85;;;;;;;4.82;100.00;101587.47;4789672;29;20489;-77
2021/10/19 02:58:36;;;;;;;1.35;0.88;;;;;;;4.86;100.00;101593.34;4789862;29;20035;-77
2021/10/19 03:01:01;;;;;;;5.25;1.25;;;;;;;4.90;100.00;101589.41;4788532;29;20030;-77
2021/10/19 03:03:27;;;;;;;3.92;1.17;;;;;;;4.93;100.00;101586.47;4790557;29;20035;-77
2021/10/19 03:05:52;;;;;;;2.13;1.05;;;;;;;4.97;100.00;101579.00;4808250;29;20118;-78
2021/10/19 03:08:18;;;;;;;6.15;1.30;;;;;;;4.88;100.00;101556.72;4779299;29;20129;-77
2021/10/19 03:10:43;;;;;;;2.55;1.05;;;;;;;5.05;100.00;101571.16;4808711;29;20037;-77
2021/10/19 03:13:08;;;;;;;4.93;1.10;;;;;;;4.92;100.00;101547.44;4811359;29;20121;-78
2021/10/19 03:15:34;;;;;;;5.63;1.45;;;;;;;4.90;100.00;101541.41;4800079;29;20062;-78
2021/10/19 03:17:59;;;;;;;3.38;1.30;;;;;;;5.07;100.00;101563.84;4810470;29;20034;-77
2021/10/19 03:20:25;;;;;;;2.60;1.50;;;;;;;5.13;100.00;101572.13;4762931;29;20046;-77
2021/10/19 03:22:50;;;;;;;4.72;1.60;;;;;;;5.15;100.00;101578.13;4779547;29;20038;-78
2021/10/19 03:25:16;;;;;;;3.65;1.50;;;;;;;5.19;100.00;101562.69;4777628;29;20042;-77
2021/10/19 03:27:41;;;;;;;3.08;1.50;;;;;;;5.22;100.00;101561.56;4803304;29;20565;-78
2021/10/19 03:30:07;;;;;;;5.90;1.80;;;;;;;5.19;100.00;101560.84;4811046;29;20049;-77
2021/10/19 03:32:33;;;;;;;4.50;1.73;;;;;;;5.11;100.00;101536.75;4795674;29;20688;-77
2021/10/19 03:34:58;;;;;;;5.45;1.65;;;;;;;5.22;100.00;101548.22;4811696;29;20460;-78
2021/10/19 03:37:24;;;;;;;6.35;1.85;;;;;;;5.12;100.00;101519.72;4780740;29;20041;-78
2021/10/19 03:39:50;;;;;;;4.93;1.85;;;;;;;5.18;100.00;101527.16;4777561;29;20108;-77
2021/10/19 03:42:15;;;;;;;7.22;2.13;;;;;;;5.28;100.00;101547.63;4802278;29;20515;-78
2021/10/19 03:44:41;;;;;;;6.88;2.40;;;;;;;5.31;100.00;101526.84;4810244;29;20545;-77
2021/10/19 03:47:06;;;;;;;9.13;2.80;;;;;;;5.24;100.00;101501.72;4784348;30;20031;-78
2021/10/19 03:49:31;;;;;;;8.40;3.08;;;;;;;5.36;100.00;101507.69;4807419;29;20450;-78
2021/10/19 03:51:57;;;;;;;6.85;2.90;;;;;;;5.34;100.00;101499.84;4793287;29;20113;-77
2021/10/19 03:54:23;;;;;;;11.30;3.20;;;;;;;5.36;100.00;101499.69;4802854;29;20038;-78
2021/10/19 03:56:48;;;;;;;8.18;3.47;;;;;;;5.22;100.00;101463.66;4777927;30;20142;-77
2021/10/19 03:59:13;;;;;;;8.55;3.60;;;;;;;5.36;100.00;101478.34;4791176;29;20054;-78
2021/10/19 04:01:39;;;;;;;7.00;3.90;;;;;;;5.52;100.00;101499.88;4763550;29;20108;-78
2021/10/19 04:04:04;;;;;;;8.90;3.70;;;;;;;5.56;100.00;101503.97;4792355;29;20129;-78
2021/10/19 04:06:30;;;;;;;10.43;4.00;;;;;;;5.52;100.00;101491.88;4793071;29;20035;-78
2021/10/19 04:08:55;;;;;;;11.25;5.05;;;;;;;5.38;100.00;101465.69;4761660;29;20039;-78
2021/10/19 04:11:21;;;;;;;10.38;4.72;;;;;;;5.56;100.00;101484.41;4808124;29;20055;-76
2021/10/19 04:13:46;;;;;;;13.52;5.28;;;;;;;5.60;100.00;101489.31;4776538;29;20134;-77
2021/10/19 04:16:13;;;;;;;11.82;4.72;;;;;;;5.61;100.00;101468.78;4778800;29;20034;-77
2021/10/19 04:18:38;;;;;;;13.52;5.72;;;;;;;5.77;100.00;101486.81;4790138;29;20043;-78
2021/10/19 04:21:04;;;;;;;13.95;5.60;;;;;;;5.82;100.00;101473.84;4776247;29;20046;-78
2021/10/19 04:23:29;;;;;;;11.18;5.82;;;;;;;5.76;100.00;101450.41;4808228;29;20034;-77
2021/10/19 04:25:55;;;;;;;14.27;5.88;;;;;;;5.86;100.00;101457.38;4807152;29;20073;-77
2021/10/19 04:28:22;;;;;;;13.70;5.90;;;;;;;5.89;100.00;101453.53;4783136;29;20034;-78
2021/10/19 04:30:47;;;;;;;10.85;5.05;;;;;;;5.84;100.00;101442.50;4801883;29;20118;-77
2021/10/19 04:33:14;;;;;;;14.57;5.65;;;;;;;5.89;100.00;101440.19;4791965;29;20121;-78
2021/10/19 04:35:39;;;;;;;11.70;5.63;;;;;;;5.99;100.00;101445.50;4791739;29;20042;-79
2021/10/19 04:38:05;;;;;;;15.13;5.97;;;;;;;5.76;100.00;101399.69;4807067;29;20031;-77
2021/10/19 04:40:31;;;;;;;14.05;6.78;;;;;;;5.80;100.00;101395.72;4805810;29;20428;-77
2021/10/19 04:42:56;;;;;;;14.98;6.35;;;;;;;6.07;100.00;101441.06;4787522;29;20134;-77
2021/10/19 04:45:23;;;;;;;13.15;6.53;;;;;;;6.07;100.00;101438.41;4788243;29;20066;-77
2021/10/19 04:47:49;;;;;;;15.80;7.15;;;;;;;6.00;100.00;101426.66;4803657;29;20487;-77
2021/10/19 04:50:15;;;;;;;13.00;6.75;;;;;;;6.11;100.00;101434.41;4808738;29;20046;-77
2021/10/19 04:52:40;;;;;;;14.15;6.90;;;;;;;6.15;100.00;101432.28;4805870;29;20060;-76
2021/10/19 04:55:06;;;;;;;18.25;7.85;;;;;;;6.22;100.00;101437.84;4775994;29;20041;-77
2021/10/19 04:57:32;;;;;;;11.48;7.07;;;;;;;6.19;100.00;101432.78;4788667;29;20038;-77
2021/10/19 04:59:57;;;;;;;15.70;6.95;;;;;;;6.27;100.00;101430.19;4801143;29;20609;-77
2021/10/19 05:02:23;;;;;;;16.38;7.55;;;;;;;6.30;100.00;101419.19;4791565;29;20031;-77
2021/10/19 05:04:50;;;;;;;16.55;7.70;;;;;;;6.33;100.00;101424.25;4802755;29;20145;-78
2021/10/19 05:07:15;;;;;;;16.80;8.48;;;;;;;6.31;100.00;101412.84;4792248;29;20030;-77
2021/10/19 05:09:41;;;;;;;20.98;8.40;;;;;;;6.37;100.00;101400.72;4807126;29;20469;-78
2021/10/19 05:12:06;;;;;;;17.95;8.43;;;;;;;6.28;100.00;101386.44;4790615;29;20428;-78
2021/10/19 05:14:32;;;;;;;14.80;8.27;;;;;;;6.47;100.00;101404.09;4807223;29;20096;-78
2021/10/19 05:16:58;;;;;;;14.98;8.10;;;;;;;6.50;100.00;101409.97;4773274;29;20576;-77
2021/10/19 05:19:23;;;;;;;14.50;8.60;;;;;;;6.49;100.00;101404.78;4803277;29;20096;-77
2021/10/19 05:21:48;;;;;;;16.67;8.85;;;;;;;6.45;100.00;101398.91;4776194;29;20118;-77
2021/10/19 05:24:14;;;;;;;17.45;9.38;;;;;;;6.41;100.00;101386.03;4783375;29;20376;-78
2021/10/19 05:26:39;;;;;;;16.48;8.57;;;;;;;6.61;100.00;101416.88;4801933;29;20123;-77
2021/10/19 05:29:04;;;;;;;25.65;9.27;;;;;;;6.65;100.00;101409.38;4803497;29;20095;-78
2021/10/19 05:31:30;;;;;;;23.15;9.35;;;;;;;6.71;100.00;101408.75;4800207;29;20030;-78
2021/10/19 05:33:55;;;;;;;20.65;9.30;;;;;;;6.69;100.00;101400.91;4774020;29;20458;-77
2021/10/19 05:36:20;;;;;;;17.10;8.63;;;;;;;6.73;100.00;101402.25;4791158;29;20092;-79
2021/10/19 05:38:48;;;;;;;19.13;8.88;;;;;;;6.51;100.00;101354.66;4811482;29;20103;-77
2021/10/19 05:41:16;;;;;;;18.45;8.75;;;;;;;6.84;100.00;101414.50;4774544;29;20034;-77
2021/10/19 05:43:42;;;;;;;14.93;8.70;;;;;;;6.86;100.00;101412.53;4790455;29;20091;-78
2021/10/19 05:46:08;;;;;;;17.83;8.63;;;;;;;6.74;100.00;101392.41;4804773;29;20050;-78
2021/10/19 05:48:35;;;;;;;15.15;8.25;;;;;;;6.94;100.00;101401.84;4792625;29;20458;-78
2021/10/19 05:51:00;;;;;;;18.20;8.55;;;;;;;6.89;100.00;101390.81;4803348;29;20377;-77
2021/10/19 05:53:26;;;;;;;16.20;8.77;;;;;;;6.93;100.00;101397.50;4789681;29;20039;-78
2021/10/19 05:55:52;;;;;;;15.93;8.95;;;;;;;6.96;100.00;101381.13;4787515;29;20045;-78
2021/10/19 05:58:18;;;;;;;17.20;9.40;;;;;;;7.01;100.00;101381.47;4789747;29;20133;-78
2021/10/19 06:00:43;;;;;;;15.73;9.40;;;;;;;7.06;100.00;101389.03;4788487;29;20133;-78
2021/10/19 06:03:08;;;;;;;22.10;9.38;;;;;;;7.10;100.00;101381.50;4774252;29;20045;-77
2021/10/19 06:05:35;;;;;;;17.73;10.40;;;;;;;7.11;100.00;101377.81;4787322;29;20458;-78
2021/10/19 06:08:01;;;;;;;17.38;10.00;;;;;;;7.13;100.00;101365.13;4772292;29;20038;-78
2021/10/19 06:10:27;;;;;;;18.15;10.27;;;;;;;7.05;100.00;101353.41;4759367;29;20460;-78
2021/10/19 06:12:52;;;;;;;21.08;9.95;;;;;;;7.04;100.00;101350.88;4787414;29;20062;-78
2021/10/19 06:15:18;;;;;;;20.17;10.48;;;;;;;7.11;100.00;101362.59;4799551;29;20046;-77
2021/10/19 06:17:44;;;;;;;20.40;10.45;;;;;;;7.18;100.00;101362.78;4773654;29;20038;-77
2021/10/19 06:20:11;;;;;;;15.20;9.05;;;;;;;7.11;100.00;101343.03;4802449;29;20045;-78
2021/10/19 06:22:38;;;;;;;19.20;10.55;;;;;;;7.19;100.00;101364.50;4788973;29;20031;-78
2021/10/19 06:25:04;;;;;;;26.98;10.77;;;;;;;7.22;100.00;101372.19;4776653;29;20038;-78
2021/10/19 06:27:30;;;;;;;23.23;10.88;;;;;;;7.02;100.00;101339.53;4803493;29;20058;-77
2021/10/19 06:29:55;;;;;;;23.00;10.75;;;;;;;7.26;100.00;101371.69;4769158;29;20062;-77
2021/10/19 06:32:20;;;;;;;19.15;10.88;;;;;;;7.14;100.00;101345.38;4787757;29;20038;-78
2021/10/19 06:34:46;;;;;;;23.77;11.00;;;;;;;7.29;100.00;101370.53;4772030;29;20063;-78
2021/10/19 06:37:13;;;;;;;21.75;11.80;;;;;;;7.21;100.00;101347.25;4802744;29;20447;-77
2021/10/19 06:39:38;;;;;;;23.67;12.10;;;;;;;7.24;100.00;101346.06;4790097;29;20022;-78
2021/10/19 06:42:04;;;;;;;20.13;11.73;;;;;;;7.31;100.00;101341.75;4811473;29;20035;-78
2021/10/19 06:44:29;;;;;;;22.45;12.90;;;;;;;7.13;100.00;101331.19;4791069;29;20127;-77
2021/10/19 06:46:54;;;;;;;23.65;11.75;;;;;;;7.33;100.00;101349.63;4777065;29;20041;-78
2021/10/19 06:49:20;;;;;;;28.15;12.82;;;;;;;7.17;100.00;101324.50;4792685;29;20481;-78
2021/10/19 06:51:45;;;;;;;26.83;12.63;;;;;;;7.33;100.00;101344.28;4787618;29;20031;-77
2021/10/19 06:54:11;;;;;;;22.75;12.98;;;;;;;7.31;100.00;101347.09;4761960;29;20031;-78
2021/10/19 06:56:36;;;;;;;21.55;13.52;;;;;;;7.35;100.00;101348.47;4778803;29;20113;-77
2021/10/19 06:59:02;;;;;;;26.13;13.95;;;;;;;7.18;100.00;101309.25;4781761;29;20125;-77
2021/10/19 07:01:27;;;;;;;21.40;13.30;;;;;;;7.33;100.00;101317.50;4797777;29;20023;-78
2021/10/19 07:03:53;;;;;;;26.15;14.65;;;;;;;7.45;100.00;101330.41;4798679;29;20079;-77
2021/10/19 07:06:18;;;;;;;23.95;14.23;;;;;;;7.48;100.00;101327.41;4778296;29;20504;-76
2021/10/19 07:08:43;;;;;;;25.50;14.27;;;;;;;7.53;100.00;101334.91;4806102;29;20043;-77
2021/10/19 07:11:09;;;;;;;27.85;14.13;;;;;;;7.51;100.00;101329.72;4790016;29;20110;-77
2021/10/19 07:13:34;;;;;;;25.88;14.70;;;;;;;7.54;100.00;101325.88;4791440;29;20048;-78
2021/10/19 07:16:00;;;;;;;26.27;15.52;;;;;;;7.60;100.00;101330.56;4792016;29;20057;-78
2021/10/19 07:18:26;;;;;;;25.90;14.73;;;;;;;7.63;100.00;101324.03;4786023;29;20905;-78
2021/10/19 07:20:52;;;;;;;23.23;14.10;;;;;;;7.70;100.00;101330.41;4788684;29;20043;-77
2021/10/19 07:23:18;;;;;;;30.38;15.38;;;;;;;7.64;100.00;101320.34;4763797;29;20113;-78
2021/10/19 07:25:44;;;;;;;25.80;15.20;;;;;;;7.79;100.00;101333.94;4788895;29;20467;-78
2021/10/19 07:28:10;;;;;;;28.92;15.45;;;;;;;7.67;100.00;101298.59;4788768;29;20031;-77
2021/10/19 07:30:35;;;;;;;29.55;15.35;;;;;;;7.82;100.00;101323.72;4774497;29;20485;-78
2021/10/19 07:33:01;;;;;;;30.30;16.02;;;;;;;7.81;100.00;101324.69;4804851;29;20546;-78
2021/10/19 07:35:26;;;;;;;28.42;14.57;;;;;;;7.87;100.00;101316.00;4790204;29;20031;-78
2021/10/19 07:37:52;;;;;;;30.75;15.95;;;;;;;7.91;100.00;101319.16;4788047;29;20034;-78
2021/10/19 07:40:19;;;;;;;30.45;16.38;;;;;;;7.94;100.00;101316.97;4787434;29;20466;-77
2021/10/19 07:42:45;;;;;;;28.75;15.85;;;;;;;7.98;100.00;101323.69;4757233;29;20041;-77
2021/10/19 07:45:12;;;;;;;28.98;16.10;;;;;;;8.01;100.00;101322.50;4795551;29;20128;-78
2021/10/19 07:47:40;;;;;;;31.13;16.10;;;;;;;7.97;100.00;101313.97;4802988;29;20623;-77
2021/10/19 07:50:06;;;;;;;30.27;15.20;;;;;;;8.09;100.00;101321.69;4788025;29;20026;-77
2021/10/19 07:52:32;;;;;;;32.20;16.55;;;;;;;8.12;100.00;101313.28;4789949;29;20031;-77
2021/10/19 07:54:57;;;;;;;27.20;16.73;;;;;;;8.04;100.00;101284.66;4775995;29;20035;-78
2021/10/19 07:57:23;;;;;;;30.77;17.98;;;;;;;8.14;100.00;101292.50;4790965;29;20051;-77
2021/10/19 07:59:48;;;;;;;31.30;17.83;;;;;;;8.24;100.00;101299.38;4772713;30;20058;-78
2021/10/19 08:02:13;;;;;;;33.40;18.35;;;;;;;8.31;100.00;101302.19;4789032;29;20034;-78
2021/10/19 08:04:39;;;;;;;28.50;17.63;;;;;;;8.34;100.00;101301.81;4790250;29;20097;-78
2021/10/19 08:07:04;;;;;;;29.27;16.80;;;;;;;8.36;100.00;101290.94;4790729;29;20038;-77
2021/10/19 08:09:30;;;;;;;30.42;16.98;;;;;;;8.37;100.00;101293.44;4773457;30;20042;-77
2021/10/19 08:11:55;;;;;;;30.77;17.38;;;;;;;8.28;100.00;101274.88;4803445;29;20043;-78
2021/10/19 08:14:20;;;;;;;33.92;18.00;;;;;;;8.37;100.00;101289.91;4780306;29;20041;-78
2021/10/19 08:16:46;;;;;;;30.13;18.17;;;;;;;8.37;100.00;101285.38;4777353;29;20130;-78
2021/10/19 08:19:11;;;;;;;32.28;18.27;;;;;;;8.37;100.00;101271.97;4791837;29;20102;-78
2021/10/19 08:21:37;;;;;;;31.20;17.70;;;;;;;8.41;100.00;101280.53;4790125;29;20418;-78
2021/10/19 08:24:03;;;;;;;35.70;19.42;;;;;;;8.42;100.00;101285.75;4776743;29;20126;-78
2021/10/19 08:26:31;;;;;;;32.28;18.85;;;;;;;8.45;100.00;101282.72;4806816;29;20115;-78
2021/10/19 08:28:58;;;;;;;38.20;19.65;;;;;;;8.38;100.00;101264.84;4775902;29;20042;-77
2021/10/19 08:31:24;;;;;;;30.48;18.73;;;;;;;8.34;100.00;101256.25;4807364;29;20042;-78
2021/10/19 08:33:50;;;;;;;33.90;19.77;;;;;;;8.49;100.00;101277.84;4807596;29;20039;-78
2021/10/19 08:36:16;;;;;;;31.77;19.48;;;;;;;8.37;100.00;101253.22;4776565;29;20069;-78
2021/10/19 08:38:43;;;;;;;32.53;19.05;;;;;;;8.52;100.00;101274.81;4791030;29;20063;-78
2021/10/19 08:41:10;;;;;;;31.55;19.75;;;;;;;8.25;100.00;101222.44;4775953;29;20117;-77
2021/10/19 08:43:38;;;;;;;33.75;19.63;;;;;;;8.56;100.00;101268.09;4791168;29;20130;-78
2021/10/19 08:46:04;;;;;;;34.83;19.42;;;;;;;8.55;100.00;101265.59;4806855;29;20035;-78
2021/10/19 08:48:29;;;;;;;32.50;19.35;;;;;;;8.50;100.00;101250.00;4797195;29;20068;-78
2021/10/19 08:50:57;;;;;;;35.15;20.05;;;;;;;8.54;100.00;101256.69;4819360;29;20097;-77
2021/10/19 08:53:23;;;;;;;35.05;20.52;;;;;;;8.56;100.00;101245.81;4790465;29;20104;-78
2021/10/19 08:55:48;;;;;;;31.00;19.33;;;;;;;8.48;100.00;101222.56;4771727;29;20043;-78
2021/10/19 08:58:14;;;;;;;32.95;19.83;;;;;;;8.49;100.00;101218.00;4804353;29;20053;-77
2021/10/19 09:00:40;;;;;;;33.85;20.27;;;;;;;8.55;100.00;101228.06;4788609;29;20462;-77
2021/10/19 09:03:06;;;;;;;37.30;20.20;;;;;;;8.64;100.00;101233.19;4774394;29;20066;-77
2021/10/19 09:05:31;;;;;;;41.20;21.55;;;;;;;8.60;100.00;101214.94;4789677;29;20402;-77
2021/10/19 09:08:12;;;;;;;33.22;20.65;;;;;;;8.76;100.00;101224.75;4800970;29;20057;-78
2021/10/19 09:10:39;;;;;;;36.63;22.27;;;;;;;8.86;100.00;101236.91;4799718;29;20085;-78
2021/10/19 09:13:17;;;;;;;39.40;22.48;;;;;;;8.89;100.00;101222.31;4798783;29;20051;-77
2021/10/19 09:15:44;;;;;;;35.22;21.95;;;;;;;8.99;100.00;101224.75;4787831;29;20027;-77
2021/10/19 09:18:14;;;;;;;40.63;22.55;;;;;;;8.93;100.00;101216.41;4805950;29;20068;-77
2021/10/19 09:20:49;;;;;;;39.78;22.80;;;;;;;9.01;100.00;101228.13;4805260;29;20049;-77
2021/10/19 09:23:18;;;;;;;41.03;23.38;;;;;;;8.97;100.00;101210.66;4788956;29;20050;-78
2021/10/19 09:25:47;;;;;;;41.00;22.95;;;;;;;9.05;100.00;101216.00;4799065;29;20057;-79
2021/10/19 09:28:31;;;;;;;40.47;23.27;;;;;;;8.98;100.00;101201.63;4776720;29;20035;-77
2021/10/19 09:30:58;;;;;;;41.67;23.47;;;;;;;9.04;100.00;101217.84;4787392;29;20066;-78
2021/10/19 09:33:25;;;;;;;40.75;24.17;;;;;;;8.86;100.00;101177.88;4772731;29;20131;-78
2021/10/19 09:35:53;;;;;;;44.78;24.10;;;;;;;9.07;100.00;101212.13;4784826;29;20045;-79
2021/10/19 09:38:20;;;;;;;41.58;22.90;;;;;;;9.01;100.00;101195.91;4783604;29;20474;-78
2021/10/19 09:40:57;;;;;;;34.58;23.08;;;;;;;9.05;100.00;101213.31;4784984;29;20058;-78
2021/10/19 09:43:27;;;;;;;39.00;23.92;;;;;;;8.98;100.00;101197.09;4800606;29;20062;-78
2021/10/19 09:45:56;;;;;;;39.90;22.90;;;;;;;9.07;100.00;101197.84;4805206;29;20476;-79
2021/10/19 09:48:32;;;;;;;41.45;23.10;;;;;;;9.10;100.00;101211.75;4792141;29;20031;-78
2021/10/19 09:51:02;;;;;;;38.97;22.48;;;;;;;9.10;100.00;101205.53;4787143;29;20035;-78
2021/10/19 09:53:29;;;;;;;35.28;21.10;;;;;;;9.11;100.00;101204.56;4790829;29;20458;-79
2021/10/19 09:55:56;;;;;;;43.92;23.00;;;;;;;9.09;100.00;101204.72;4789958;29;20328;-78
2021/10/19 09:58:23;;;;;;;33.63;21.20;;;;;;;9.12;100.00;101198.16;4789860;29;20043;-78
2021/10/19 10:00:49;;;;;;;37.90;21.45;;;;;;;9.14;100.00;101196.13;4805382;29;20041;-78
2021/10/19 10:03:14;;;;;;;38.33;21.45;;;;;;;9.14;100.00;101196.97;4790144;29;20030;-79
2021/10/19 10:05:41;;;;;;;36.70;20.40;;;;;;;9.19;100.00;101196.41;4806524;29;20031;-79
2021/10/19 10:08:10;;;;;;;42.83;22.08;;;;;;;9.21;100.00;101197.06;4790957;29;20039;-78
2021/10/19 10:10:36;;;;;;;40.65;22.42;;;;;;;9.14;100.00;101167.44;4805471;29;20031;-78
2021/10/19 10:13:07;;;;;;;40.05;21.63;;;;;;;9.11;100.00;101148.16;4804533;29;20488;-78
2021/10/19 10:15:35;;;;;;;39.60;21.58;;;;;;;9.39;100.00;101183.31;4789942;29;20550;-78
2021/10/19 10:18:06;;;;;;;39.45;22.05;;;;;;;9.37;100.00;101178.16;4789068;29;20031;-78
2021/10/19 10:20:43;;;;;;;42.80;23.05;;;;;;;9.46;100.00;101176.19;4806570;29;20454;-78
2021/10/19 10:23:20;;;;;;;35.83;22.77;;;;;;;9.52;100.00;101177.31;4805037;29;20031;-78
2021/10/19 10:25:47;;;;;;;40.85;23.17;;;;;;;9.49;100.00;101166.94;4806381;29;20086;-79
2021/10/19 10:28:14;;;;;;;42.55;23.13;;;;;;;9.44;100.00;101159.44;4789813;29;20039;-78
2021/10/19 10:30:39;;;;;;;37.80;22.90;;;;;;;9.54;100.00;101169.94;4806273;29;20027;-78
2021/10/19 10:33:06;;;;;;;39.03;20.77;;;;;;;9.61;100.00;101176.22;4804744;29;20043;-78
2021/10/19 10:35:32;;;;;;;38.25;21.15;;;;;;;9.28;100.00;101109.41;4775924;29;20076;-78
2021/10/19 10:37:58;;;;;;;34.78;21.25;;;;;;;9.40;100.00;101126.75;4805788;29;20110;-79
2021/10/19 10:40:31;;;;;;;38.72;21.67;;;;;;;9.67;100.00;101159.38;4797065;29;20047;-80
2021/10/19 10:42:58;;;;;;;39.22;21.48;;;;;;;9.71;100.00;101149.91;4805778;29;20035;-78
2021/10/19 10:45:33;;;;;;;37.92;21.75;;;;;;;9.76;100.00;101149.34;4789078;29;20570;-79
2021/10/19 10:48:05;;;;;;;43.65;21.73;;;;;;;9.74;100.00;101127.22;4793415;29;20050;-78
2021/10/19 10:50:33;;;;;;;41.53;23.13;;;;;;;9.92;100.00;101135.72;4805857;29;20031;-78
2021/10/19 10:52:59;;;;;;;44.20;24.05;;;;;;;10.00;100.00;101134.78;4788444;29;20347;-78
2021/10/19 10:55:25;;;;;;;46.80;26.50;;;;;;;9.84;100.00;101095.53;4790687;29;20395;-79
2021/10/19 10:57:50;;;;;;;44.30;24.00;;;;;;;10.10;100.00;101138.03;4806199;29;20092;-79
2021/10/19 11:00:23;;;;;;;48.53;27.58;;;;;;;10.10;100.00;101129.97;4805497;29;20046;-79
2021/10/19 11:02:48;;;;;;;43.42;24.58;;;;;;;10.14;100.00;101128.56;4806456;29;20113;-79
2021/10/19 11:05:15;;;;;;;43.65;25.70;;;;;;;10.08;100.00;101113.19;4789242;29;20117;-78
2021/10/19 11:07:42;;;;;;;47.88;25.85;;;;;;;10.15;100.00;101114.09;4760125;29;20043;-79
2021/10/19 11:10:14;;;;;;;51.58;27.00;;;;;;;10.22;100.00;101120.38;4804549;29;20035;-79
2021/10/19 11:12:42;;;;;;;44.47;25.95;;;;;;;10.23;100.00;101100.56;4786081;29;20054;-79